Terminal Aerodrome Forecast
Issued by NWS Grand Forks, ND

Home | Current Version | Previous Version | Graphics & Text | Print | Product List | Glossary On
Versions: 1 2 3 4 5 6 7 8 9 10 11 12 13 14 15 16
000
FTUS43 KFGF 271700
TAFGFK
TAF
KGFK 271720Z 2718/2818 35016KT P6SM BKN025
      TEMPO 2719/2721 BKN040
     FM272100 35014KT P6SM BKN040
     FM280300 34008KT P6SM SKC=

USA.gov is the U.S. government's official web portal to all federal, state and local government web resources and services.